• Join FlightAware (Why Join?)
  • Login
  • US Flag 
09:49AM EDT


 

Airport Tracker/Info


-or-


 

Live Flight TrackerFlight Track Log ✈ N329JB ✈ 19-Apr-2013 ✈ KPIT - KBOS

Flight Track Log - Related Links

Times and Time Zones

All times are in EDT time to prevent confusion due to time zone crossing. See the N329JB flight status page for this flight to view local times or setup timezone preferences in your user account.

Time Position Orientation Groundspeed Altitude Reporting Facility
EDT Latitude Longitude Course Direction KTS MPH feet Rate Location/Type
05:01PM 41.5404 -79.3341 42° Northeast  Level FlightAware Approximate
05:02PM 41.6047 -79.2554 42° Northeast  Level FlightAware Approximate
05:02PM 40.7086 -80.2489 101° East 326 375 8,700  Level Cleveland Center
05:03PM 41.6460 -79.1659 99° East  Level FlightAware Approximate
05:03PM 40.8067 -80.2156 14° North 341 392 10,800  Level Cleveland Center
05:04PM 41.6323 -79.0506 99° East  Level FlightAware Approximate
05:04PM 40.8897 -80.1133 43° Northeast 378 435 12,700  Level Cleveland Center
05:05PM 41.6184 -78.9354 99° East  Level FlightAware Approximate
05:05PM 40.9369 -79.9675 67° East 393 452 15,100  Level Cleveland Center
05:06PM 41.6045 -78.8203 99° East  Level FlightAware Approximate
05:06PM 40.9861 -79.8183 66° East 408 470 17,700  Level Cleveland Center
05:07PM 41.5890 -78.7056 101° East  Level FlightAware Approximate
05:07PM 41.0369 -79.6636 66° East 432 497 19,900  Level Cleveland Center
05:08PM 41.0878 -79.5061 67° East 454 522 22,000 1,920 Climbing Cleveland Center
05:09PM 41.1444 -79.3397 66° East 468 539 23,800 1,920 Climbing Cleveland Center
05:10PM 41.1947 -79.1731 68° East 480 552 25,900 1,800 Climbing Cleveland Center
05:11PM 41.2489 -79.0089 66° East 480 552 27,500 1,380 Climbing Cleveland Center
05:12PM 41.3025 -78.8389 67° East 485 558 28,700 1,020 Climbing Cleveland Center
05:13PM 41.3603 -78.6631 66° East 491 565 29,600 840 Climbing Cleveland Center
05:14PM 41.4133 -78.4817 69° East 504 580 30,400 1,260 Climbing Cleveland Center
05:15PM 41.4800 -78.2783 66° East 532 612 32,400 1,140 Climbing New York Center
05:16PM 41.5325 -78.1042 68° East 532 612 33,000 240 Climbing New York Center
05:17PM 41.5869 -77.9269 68° East 521 600 33,000  Level New York Center
05:18PM 41.6394 -77.7464 69° East 521 600 33,000  Level New York Center
05:19PM 41.6936 -77.5658 68° East 521 600 33,000  Level New York Center
05:20PM 41.7494 -77.3881 67° East 521 600 33,000  Level New York Center
05:21PM 41.8033 -77.2042 68° East 521 600 33,000  Level New York Center
05:22PM 41.8544 -77.0281 69° East 515 593 33,000  Level New York Center
05:23PM 41.9097 -76.8408 68° East 522 601 33,000  Level New York Center
05:25PM 41.9989 -76.5444 68° East 544 626 33,000  Level Boston Center
05:26PM 42.0558 -76.3467 69° East 532 612 33,000  Level Boston Center
05:27PM 42.0961 -76.2008 70° East 519 597 33,000  Level Boston Center
05:28PM 42.1597 -75.9806 69° East 519 597 33,000  Level Boston Center
05:29PM 42.2089 -75.7983 70° East 519 597 33,000  Level Boston Center
05:30PM 42.2867 -75.6311 58° Northeast 511 588 33,000  Level Boston Center
05:31PM 42.4108 -75.5111 35° Northeast 520 598 33,000  Level Boston Center
05:32PM 42.5308 -75.3903 37° Northeast 520 598 33,000  Level Boston Center
05:33PM 42.6103 -75.2217 57° Northeast 519 597 33,000  Level Boston Center
05:34PM 42.6333 -75.0336 80° East 488 562 33,000  Level Boston Center
05:35PM 42.6522 -74.8425 82° East 493 567 33,000  Level Boston Center
05:36PM 42.6686 -74.6539 83° East 498 573 33,000  Level Boston Center
05:37PM 42.6886 -74.4681 82° East 498 573 33,000  Level Boston Center
05:38PM 42.7044 -74.2822 83° East 498 573 33,000 -360 Level Boston Center
05:39PM 42.7219 -74.0933 83° East 498 573 32,300 -900 Descending Boston Center
05:40PM 42.7369 -73.9044 84° East 498 573 31,300 -1,020 Descending Boston Center
05:41PM 42.7350 -73.7178 91° East 498 573 30,300 -900 Descending Boston Center
05:42PM 42.7222 -73.5564 96° East 488 562 29,500 -900 Descending Boston Center
05:43PM 42.7031 -73.3725 98° East 488 562 28,500 -1,080 Descending Boston Center
05:44PM 42.6833 -73.1942 98° East 483 556 27,400 -1,080 Descending Boston Center
05:45PM 42.6636 -72.9992 98° East 483 556 26,400 -1,020 Descending Boston Center
05:46PM 42.6417 -72.8128 99° East 488 562 25,400 -1,620 Descending Boston Center
05:47PM 42.6192 -72.6406 100° East 476 548 23,300 -2,100 Descending Boston Center
05:48PM 42.6006 -72.4739 99° East 458 527 21,300 -2,040 Descending Boston Center
05:49PM 42.5794 -72.3075 100° East 458 527 19,300 -2,040 Descending Boston Center
05:50PM 42.5583 -72.1639 101° East 407 468 17,300 -1,740 Descending Boston Center
05:51PM 42.5414 -72.0342 100° East 385 443 15,800 -1,680 Descending Boston Center
05:52PM 42.5303 -71.8794 96° East 374 430 14,100 -1,620 Descending Boston Center
05:53PM 42.5172 -71.7669 99° East 353 406 12,600 -1,560 Descending Boston Center
05:54PM 42.5058 -71.6261 96° East 348 400 11,000 -840 Descending Boston Center
05:55PM 42.4947 -71.5164 98° East 335 386 11,000  Level Boston Center
05:56PM 42.4833 -71.4000 98° East 333 383 11,000 -660 Level KA90
05:57PM 42.4667 -71.2667 100° East 336 387 9,800 -1,320 Descending KA90
05:58PM 42.4667 -71.1500 90° East 326 375 8,400 -1,440 Descending KA90
05:59PM 42.4500 -71.0333 101° East 292 336 7,000 -1,200 Descending KA90
06:00PM 42.4500 -70.9333 90° East 269 310 6,000 -1,140 Descending KA90
06:01PM 42.4619 -70.8358 81° East 268 308 4,600 -900 Descending Boston Center
06:02PM 42.4772 -70.7369 78° East 263 303 4,000 -360 Descending Boston Center
06:03PM 42.4758 -70.6525 91° East 248 285 4,000  Level Boston Center
06:04PM 42.4256 -70.6372 167° South 180 207 4,000  Level Boston Center
06:05PM 42.4119 -70.6939 252° West 81 93 4,000 -240 Level Boston Center
06:06PM 42.4044 -70.7447 259° West 105 121 3,600 -660 Descending Boston Center
06:08PM 42.3833 -70.8500 255° West 136 157 2,000 -780 Descending KA90
06:09PM 42.3833 -70.9000 270° West 132 152 1,400 -660 Descending KA90
06:10PM 42.3667 -70.9333 236° Southwest 123 142 900 -600 Descending KA90